sensor_id;sensor_type;location;lat;lon;timestamp;pressure;altitude;pressure_sealevel;temperature;humidity
14242;BME280;7205;50.864;12.766;2023-07-29T00:01:14;97060.69;;;20.78;88.73
14242;BME280;7205;50.864;12.766;2023-07-29T00:03:40;97058.53;;;20.75;88.83
14242;BME280;7205;50.864;12.766;2023-07-29T00:06:09;97054.50;;;20.73;88.85
14242;BME280;7205;50.864;12.766;2023-07-29T00:08:36;97054.97;;;20.70;88.91
14242;BME280;7205;50.864;12.766;2023-07-29T00:11:02;97060.59;;;20.68;89.04
14242;BME280;7205;50.864;12.766;2023-07-29T00:13:29;97055.75;;;20.65;89.28
14242;BME280;7205;50.864;12.766;2023-07-29T00:15:56;97060.53;;;20.63;89.36
14242;BME280;7205;50.864;12.766;2023-07-29T00:18:24;97058.94;;;20.62;89.62
14242;BME280;7205;50.864;12.766;2023-07-29T00:20:51;97057.31;;;20.61;89.66
14242;BME280;7205;50.864;12.766;2023-07-29T00:23:18;97046.03;;;20.59;89.92
14242;BME280;7205;50.864;12.766;2023-07-29T00:25:45;97044.38;;;20.58;90.04
14242;BME280;7205;50.864;12.766;2023-07-29T00:28:12;97045.47;;;20.57;90.16
14242;BME280;7205;50.864;12.766;2023-07-29T00:30:39;97040.34;;;20.56;90.28
14242;BME280;7205;50.864;12.766;2023-07-29T00:33:05;97041.66;;;20.53;90.38
14242;BME280;7205;50.864;12.766;2023-07-29T00:35:34;97042.72;;;20.52;90.67
14242;BME280;7205;50.864;12.766;2023-07-29T00:38:01;97037.38;;;20.52;90.69
14242;BME280;7205;50.864;12.766;2023-07-29T00:40:28;97043.53;;;20.53;90.84
14242;BME280;7205;50.864;12.766;2023-07-29T00:42:55;97040.31;;;20.51;90.81
14242;BME280;7205;50.864;12.766;2023-07-29T00:45:23;97029.00;;;20.49;90.91
14242;BME280;7205;50.864;12.766;2023-07-29T00:47:51;97030.88;;;20.48;91.05
14242;BME280;7205;50.864;12.766;2023-07-29T00:50:18;97026.84;;;20.46;91.27
14242;BME280;7205;50.864;12.766;2023-07-29T00:52:46;97020.91;;;20.44;91.27
14242;BME280;7205;50.864;12.766;2023-07-29T00:55:14;97016.63;;;20.43;91.40
14242;BME280;7205;50.864;12.766;2023-07-29T00:57:41;97020.34;;;20.42;91.56
14242;BME280;7205;50.864;12.766;2023-07-29T01:00:14;97017.91;;;20.40;91.76
14242;BME280;7205;50.864;12.766;2023-07-29T01:02:41;97005.56;;;20.39;91.55
14242;BME280;7205;50.864;12.766;2023-07-29T01:05:09;97006.63;;;20.38;91.83
14242;BME280;7205;50.864;12.766;2023-07-29T01:07:41;96998.00;;;20.36;91.83
14242;BME280;7205;50.864;12.766;2023-07-29T01:10:21;96994.78;;;20.34;92.00
14242;BME280;7205;50.864;12.766;2023-07-29T01:12:56;96998.53;;;20.33;91.99
14242;BME280;7205;50.864;12.766;2023-07-29T01:15:31;96999.59;;;20.32;92.15
14242;BME280;7205;50.864;12.766;2023-07-29T01:18:04;97004.66;;;20.29;92.09
14242;BME280;7205;50.864;12.766;2023-07-29T01:20:33;96997.91;;;20.26;92.05
14242;BME280;7205;50.864;12.766;2023-07-29T01:23:01;96997.63;;;20.23;92.13
14242;BME280;7205;50.864;12.766;2023-07-29T01:25:29;96995.94;;;20.17;92.01
14242;BME280;7205;50.864;12.766;2023-07-29T01:27:56;96997.69;;;20.11;92.13
14242;BME280;7205;50.864;12.766;2023-07-29T01:30:28;97005.16;;;20.04;92.20
14242;BME280;7205;50.864;12.766;2023-07-29T01:33:01;97006.38;;;19.96;92.52
14242;BME280;7205;50.864;12.766;2023-07-29T01:35:33;97003.91;;;19.90;92.86
14242;BME280;7205;50.864;12.766;2023-07-29T01:38:06;97013.97;;;19.83;93.19
14242;BME280;7205;50.864;12.766;2023-07-29T01:40:35;97012.31;;;19.77;93.45
14242;BME280;7205;50.864;12.766;2023-07-29T01:43:02;97017.84;;;19.70;93.80
14242;BME280;7205;50.864;12.766;2023-07-29T01:45:29;97026.63;;;19.66;94.36
14242;BME280;7205;50.864;12.766;2023-07-29T01:47:57;97037.03;;;19.62;95.08
14242;BME280;7205;50.864;12.766;2023-07-29T01:50:24;97031.09;;;19.60;95.78
14242;BME280;7205;50.864;12.766;2023-07-29T01:52:50;97029.00;;;19.62;96.66
14242;BME280;7205;50.864;12.766;2023-07-29T01:55:17;97032.53;;;19.68;97.45
14242;BME280;7205;50.864;12.766;2023-07-29T01:57:46;97039.59;;;19.74;97.89
14242;BME280;7205;50.864;12.766;2023-07-29T02:00:13;97039.44;;;19.80;98.04
14242;BME280;7205;50.864;12.766;2023-07-29T02:02:40;97040.06;;;19.87;98.21
14242;BME280;7205;50.864;12.766;2023-07-29T02:05:07;97043.34;;;19.94;98.37
14242;BME280;7205;50.864;12.766;2023-07-29T02:07:34;97035.38;;;19.99;98.45
14242;BME280;7205;50.864;12.766;2023-07-29T02:10:01;97042.44;;;20.06;98.23
14242;BME280;7205;50.864;12.766;2023-07-29T02:12:27;97040.84;;;20.10;97.96
14242;BME280;7205;50.864;12.766;2023-07-29T02:14:55;97036.88;;;20.12;97.64
14242;BME280;7205;50.864;12.766;2023-07-29T02:17:22;97037.44;;;20.14;97.58
14242;BME280;7205;50.864;12.766;2023-07-29T02:19:49;97031.84;;;20.16;97.52
14242;BME280;7205;50.864;12.766;2023-07-29T02:22:16;97031.34;;;20.19;97.31
14242;BME280;7205;50.864;12.766;2023-07-29T02:24:44;97034.59;;;20.21;97.31
14242;BME280;7205;50.864;12.766;2023-07-29T02:27:10;97037.84;;;20.23;96.95
14242;BME280;7205;50.864;12.766;2023-07-29T02:29:37;97041.31;;;20.23;96.91
14242;BME280;7205;50.864;12.766;2023-07-29T02:32:05;97036.78;;;20.24;96.49
14242;BME280;7205;50.864;12.766;2023-07-29T02:34:32;97035.16;;;20.23;96.73
14242;BME280;7205;50.864;12.766;2023-07-29T02:36:59;97032.22;;;20.24;96.60
14242;BME280;7205;50.864;12.766;2023-07-29T02:39:26;97033.59;;;20.27;96.69
14242;BME280;7205;50.864;12.766;2023-07-29T02:41:54;97035.22;;;20.28;96.66
14242;BME280;7205;50.864;12.766;2023-07-29T02:44:21;97035.75;;;20.30;96.67
14242;BME280;7205;50.864;12.766;2023-07-29T02:46:48;97027.25;;;20.33;96.50
14242;BME280;7205;50.864;12.766;2023-07-29T02:49:16;97028.59;;;20.35;96.37
14242;BME280;7205;50.864;12.766;2023-07-29T02:51:43;97027.28;;;20.38;96.31
14242;BME280;7205;50.864;12.766;2023-07-29T02:54:09;97023.53;;;20.39;96.09
14242;BME280;7205;50.864;12.766;2023-07-29T02:56:36;97029.72;;;20.39;95.94
14242;BME280;7205;50.864;12.766;2023-07-29T02:59:03;97024.88;;;20.41;95.86
14242;BME280;7205;50.864;12.766;2023-07-29T03:01:30;97028.13;;;20.43;95.50
14242;BME280;7205;50.864;12.766;2023-07-29T03:03:57;97021.97;;;20.43;95.48
14242;BME280;7205;50.864;12.766;2023-07-29T03:06:25;97021.72;;;20.44;95.29
14242;BME280;7205;50.864;12.766;2023-07-29T03:08:52;97022.78;;;20.43;95.26
14242;BME280;7205;50.864;12.766;2023-07-29T03:11:18;97025.19;;;20.45;95.19
14242;BME280;7205;50.864;12.766;2023-07-29T03:13:51;97022.78;;;20.43;94.90
14242;BME280;7205;50.864;12.766;2023-07-29T03:16:18;97025.44;;;20.43;94.92
14242;BME280;7205;50.864;12.766;2023-07-29T03:18:50;97015.81;;;20.42;94.78
14242;BME280;7205;50.864;12.766;2023-07-29T03:21:17;97010.44;;;20.42;94.65
14242;BME280;7205;50.864;12.766;2023-07-29T03:23:45;97006.94;;;20.42;94.38
14242;BME280;7205;50.864;12.766;2023-07-29T03:26:12;97008.25;;;20.39;94.35
14242;BME280;7205;50.864;12.766;2023-07-29T03:28:40;97016.31;;;20.39;94.26
14242;BME280;7205;50.864;12.766;2023-07-29T03:31:08;97017.59;;;20.37;94.48
14242;BME280;7205;50.864;12.766;2023-07-29T03:33:35;97014.66;;;20.38;94.54
14242;BME280;7205;50.864;12.766;2023-07-29T03:36:01;97016.56;;;20.38;94.55
14242;BME280;7205;50.864;12.766;2023-07-29T03:38:28;97024.59;;;20.38;94.61
14242;BME280;7205;50.864;12.766;2023-07-29T03:40:57;97030.50;;;20.40;94.47
14242;BME280;7205;50.864;12.766;2023-07-29T03:43:23;97027.03;;;20.39;94.53
14242;BME280;7205;50.864;12.766;2023-07-29T03:45:54;97032.16;;;20.41;94.52
14242;BME280;7205;50.864;12.766;2023-07-29T03:48:21;97033.50;;;20.43;94.55
14242;BME280;7205;50.864;12.766;2023-07-29T03:50:48;97028.69;;;20.45;94.60
14242;BME280;7205;50.864;12.766;2023-07-29T03:53:14;97026.56;;;20.47;94.54
14242;BME280;7205;50.864;12.766;2023-07-29T03:55:42;97027.94;;;20.50;94.42
14242;BME280;7205;50.864;12.766;2023-07-29T03:58:11;97029.31;;;20.52;94.40
14242;BME280;7205;50.864;12.766;2023-07-29T04:00:38;97026.38;;;20.54;94.25
14242;BME280;7205;50.864;12.766;2023-07-29T04:03:05;97018.88;;;20.56;94.24
14242;BME280;7205;50.864;12.766;2023-07-29T04:05:32;97020.25;;;20.58;94.19
14242;BME280;7205;50.864;12.766;2023-07-29T04:07:59;97021.88;;;20.59;94.32
14242;BME280;7205;50.864;12.766;2023-07-29T04:10:26;97013.31;;;20.62;94.19
14242;BME280;7205;50.864;12.766;2023-07-29T04:12:53;97024.34;;;20.66;94.19
14242;BME280;7205;50.864;12.766;2023-07-29T04:15:21;97012.28;;;20.68;94.01
14242;BME280;7205;50.864;12.766;2023-07-29T04:17:48;97018.78;;;20.72;94.07
14242;BME280;7205;50.864;12.766;2023-07-29T04:20:15;97017.22;;;20.76;93.81
14242;BME280;7205;50.864;12.766;2023-07-29T04:22:41;97014.28;;;20.78;93.67
14242;BME280;7205;50.864;12.766;2023-07-29T04:25:08;97014.03;;;20.79;93.41
14242;BME280;7205;50.864;12.766;2023-07-29T04:27:35;97013.50;;;20.82;93.39
14242;BME280;7205;50.864;12.766;2023-07-29T04:30:02;97016.22;;;20.87;93.25
14242;BME280;7205;50.864;12.766;2023-07-29T04:32:30;97014.91;;;20.90;93.14
14242;BME280;7205;50.864;12.766;2023-07-29T04:34:57;97010.66;;;20.94;93.02
14242;BME280;7205;50.864;12.766;2023-07-29T04:37:24;97006.66;;;20.96;92.78
14242;BME280;7205;50.864;12.766;2023-07-29T04:39:51;97005.09;;;21.00;92.40
14242;BME280;7205;50.864;12.766;2023-07-29T04:42:17;97003.53;;;21.04;92.17
14242;BME280;7205;50.864;12.766;2023-07-29T04:44:44;97006.50;;;21.08;92.11
14242;BME280;7205;50.864;12.766;2023-07-29T04:47:11;97009.78;;;21.15;91.92
14242;BME280;7205;50.864;12.766;2023-07-29T04:49:39;97004.44;;;21.20;91.56
14242;BME280;7205;50.864;12.766;2023-07-29T04:52:06;96993.50;;;21.27;91.30
14242;BME280;7205;50.864;12.766;2023-07-29T04:54:33;96994.06;;;21.34;91.03
14242;BME280;7205;50.864;12.766;2023-07-29T04:57:00;96988.22;;;21.42;90.78
14242;BME280;7205;50.864;12.766;2023-07-29T04:59:27;96986.38;;;21.52;90.24
14242;BME280;7205;50.864;12.766;2023-07-29T05:01:53;96988.34;;;21.62;89.65
14242;BME280;7205;50.864;12.766;2023-07-29T05:04:20;96985.94;;;21.70;89.07
14242;BME280;7205;50.864;12.766;2023-07-29T05:06:49;96979.03;;;21.79;88.26
14242;BME280;7205;50.864;12.766;2023-07-29T05:09:17;96980.94;;;21.89;87.63
14242;BME280;7205;50.864;12.766;2023-07-29T05:11:45;96976.69;;;21.98;87.09
14242;BME280;7205;50.864;12.766;2023-07-29T05:14:13;96975.38;;;22.05;86.00
14242;BME280;7205;50.864;12.766;2023-07-29T05:16:41;96970.81;;;22.11;85.05
14242;BME280;7205;50.864;12.766;2023-07-29T05:19:08;96965.44;;;22.16;84.66
14242;BME280;7205;50.864;12.766;2023-07-29T05:21:35;96965.47;;;22.21;84.09
14242;BME280;7205;50.864;12.766;2023-07-29T05:24:04;96965.22;;;22.27;83.64
14242;BME280;7205;50.864;12.766;2023-07-29T05:26:31;96961.22;;;22.35;83.05
14242;BME280;7205;50.864;12.766;2023-07-29T05:28:58;96959.59;;;22.44;82.55
14242;BME280;7205;50.864;12.766;2023-07-29T05:31:24;96952.38;;;22.55;82.14
14242;BME280;7205;50.864;12.766;2023-07-29T05:33:51;96957.50;;;22.66;81.88
14242;BME280;7205;50.864;12.766;2023-07-29T05:36:18;96959.94;;;22.78;81.02
14242;BME280;7205;50.864;12.766;2023-07-29T05:38:45;96958.88;;;22.89;79.74
14242;BME280;7205;50.864;12.766;2023-07-29T05:41:13;96966.13;;;22.93;78.99
14242;BME280;7205;50.864;12.766;2023-07-29T05:43:40;96972.84;;;22.96;78.58
14242;BME280;7205;50.864;12.766;2023-07-29T05:46:09;96974.22;;;22.93;77.43
14242;BME280;7205;50.864;12.766;2023-07-29T05:48:36;96972.34;;;22.89;77.14
14242;BME280;7205;50.864;12.766;2023-07-29T05:51:03;96978.25;;;22.86;77.29
14242;BME280;7205;50.864;12.766;2023-07-29T05:53:31;96976.63;;;22.85;76.88
14242;BME280;7205;50.864;12.766;2023-07-29T05:55:57;96979.31;;;22.85;76.92
14242;BME280;7205;50.864;12.766;2023-07-29T05:58:26;96979.06;;;22.86;76.23
14242;BME280;7205;50.864;12.766;2023-07-29T06:00:52;96975.03;;;22.84;75.74
14242;BME280;7205;50.864;12.766;2023-07-29T06:03:20;96978.78;;;22.78;75.36
14242;BME280;7205;50.864;12.766;2023-07-29T06:05:49;96977.16;;;22.72;75.32
14242;BME280;7205;50.864;12.766;2023-07-29T06:08:16;96977.69;;;22.64;75.17
14242;BME280;7205;50.864;12.766;2023-07-29T06:10:45;96976.06;;;22.58;75.23
14242;BME280;7205;50.864;12.766;2023-07-29T06:13:12;96986.84;;;22.58;75.69
14242;BME280;7205;50.864;12.766;2023-07-29T06:15:40;96979.03;;;22.66;76.38
14242;BME280;7205;50.864;12.766;2023-07-29T06:18:06;96978.00;;;22.82;76.04
14242;BME280;7205;50.864;12.766;2023-07-29T06:20:33;96971.53;;;22.98;75.18
14242;BME280;7205;50.864;12.766;2023-07-29T06:23:00;96966.38;;;23.17;74.48
14242;BME280;7205;50.864;12.766;2023-07-29T06:25:27;96972.06;;;23.30;73.44
14242;BME280;7205;50.864;12.766;2023-07-29T06:27:54;96973.09;;;23.39;72.40
14242;BME280;7205;50.864;12.766;2023-07-29T06:30:21;96973.63;;;23.46;71.81
14242;BME280;7205;50.864;12.766;2023-07-29T06:32:49;96987.66;;;23.53;71.38
14242;BME280;7205;50.864;12.766;2023-07-29T06:35:15;96967.16;;;23.58;70.74
14242;BME280;7205;50.864;12.766;2023-07-29T06:37:42;96971.47;;;23.58;70.00
14242;BME280;7205;50.864;12.766;2023-07-29T06:40:10;96975.53;;;23.56;68.95
14242;BME280;7205;50.864;12.766;2023-07-29T06:42:37;96969.06;;;23.52;69.35
14242;BME280;7205;50.864;12.766;2023-07-29T06:45:04;96977.69;;;23.54;69.95
14242;BME280;7205;50.864;12.766;2023-07-29T06:47:32;96978.44;;;23.59;70.08
14242;BME280;7205;50.864;12.766;2023-07-29T06:50:00;96974.94;;;23.69;69.88
14242;BME280;7205;50.864;12.766;2023-07-29T06:52:27;96971.66;;;23.77;68.92
14242;BME280;7205;50.864;12.766;2023-07-29T06:54:53;96968.13;;;23.82;67.40
14242;BME280;7205;50.864;12.766;2023-07-29T06:57:20;96966.53;;;23.81;65.95
14242;BME280;7205;50.864;12.766;2023-07-29T06:59:47;96969.25;;;23.76;65.61
14242;BME280;7205;50.864;12.766;2023-07-29T07:02:14;96968.19;;;23.72;65.60
14242;BME280;7205;50.864;12.766;2023-07-29T07:04:40;96971.44;;;23.69;65.72
14242;BME280;7205;50.864;12.766;2023-07-29T07:07:09;96961.75;;;23.68;65.88
14242;BME280;7205;50.864;12.766;2023-07-29T07:09:35;96962.25;;;23.70;66.30
14242;BME280;7205;50.864;12.766;2023-07-29T07:12:03;96961.19;;;23.71;65.82
14242;BME280;7205;50.864;12.766;2023-07-29T07:14:29;96956.06;;;23.74;66.13
14242;BME280;7205;50.864;12.766;2023-07-29T07:16:56;96953.84;;;23.86;66.82
14242;BME280;7205;50.864;12.766;2023-07-29T07:19:23;96948.94;;;23.98;66.13
14242;BME280;7205;50.864;12.766;2023-07-29T07:21:49;96945.94;;;24.05;65.55
14242;BME280;7205;50.864;12.766;2023-07-29T07:24:18;96944.00;;;24.15;65.67
14242;BME280;7205;50.864;12.766;2023-07-29T07:26:44;96936.94;;;24.29;66.11
14242;BME280;7205;50.864;12.766;2023-07-29T07:29:11;96929.25;;;24.46;64.88
14242;BME280;7205;50.864;12.766;2023-07-29T07:31:38;96932.94;;;24.60;63.78
14242;BME280;7205;50.864;12.766;2023-07-29T07:34:04;96924.75;;;24.75;63.19
14242;BME280;7205;50.864;12.766;2023-07-29T07:36:31;96921.34;;;24.94;63.02
14242;BME280;7205;50.864;12.766;2023-07-29T07:38:58;96918.72;;;25.12;62.42
14242;BME280;7205;50.864;12.766;2023-07-29T07:41:26;96912.59;;;25.30;61.54
14242;BME280;7205;50.864;12.766;2023-07-29T07:43:53;96910.81;;;25.49;61.30
14242;BME280;7205;50.864;12.766;2023-07-29T07:46:19;96894.63;;;25.68;60.77
14242;BME280;7205;50.864;12.766;2023-07-29T07:48:46;96895.19;;;25.88;60.03
14242;BME280;7205;50.864;12.766;2023-07-29T07:51:13;96899.78;;;26.12;59.57
14242;BME280;7205;50.864;12.766;2023-07-29T07:53:40;96885.06;;;26.36;58.90
14242;BME280;7205;50.864;12.766;2023-07-29T07:56:07;96886.38;;;26.57;57.38
14242;BME280;7205;50.864;12.766;2023-07-29T07:58:36;96880.06;;;26.80;56.27
14242;BME280;7205;50.864;12.766;2023-07-29T08:01:03;96885.94;;;27.01;55.42
14242;BME280;7205;50.864;12.766;2023-07-29T08:03:30;96887.88;;;27.14;54.45
14242;BME280;7205;50.864;12.766;2023-07-29T08:05:57;96895.59;;;27.21;52.76
14242;BME280;7205;50.864;12.766;2023-07-29T08:08:24;96908.84;;;27.22;52.11
14242;BME280;7205;50.864;12.766;2023-07-29T08:10:52;96906.16;;;27.22;52.46
14242;BME280;7205;50.864;12.766;2023-07-29T08:13:19;96908.84;;;27.22;51.79
14242;BME280;7205;50.864;12.766;2023-07-29T08:15:48;96918.28;;;27.25;52.11
14242;BME280;7205;50.864;12.766;2023-07-29T08:18:15;96924.53;;;27.25;51.29
14242;BME280;7205;50.864;12.766;2023-07-29T08:20:51;96925.81;;;27.14;50.81
14242;BME280;7205;50.864;12.766;2023-07-29T08:23:18;96931.13;;;27.05;50.57
14242;BME280;7205;50.864;12.766;2023-07-29T08:25:45;96932.59;;;26.98;50.27
14242;BME280;7205;50.864;12.766;2023-07-29T08:28:11;96930.47;;;26.95;50.62
14242;BME280;7205;50.864;12.766;2023-07-29T08:30:39;96922.84;;;26.97;50.51
14242;BME280;7205;50.864;12.766;2023-07-29T08:33:07;96927.16;;;26.98;50.30
14242;BME280;7205;50.864;12.766;2023-07-29T08:35:34;96926.28;;;27.02;50.02
14242;BME280;7205;50.864;12.766;2023-07-29T08:38:02;96929.50;;;27.04;49.10
14242;BME280;7205;50.864;12.766;2023-07-29T08:40:30;96926.78;;;27.04;49.13
14242;BME280;7205;50.864;12.766;2023-07-29T08:43:02;96930.53;;;27.08;49.28
14242;BME280;7205;50.864;12.766;2023-07-29T08:45:30;96927.22;;;27.11;48.53
14242;BME280;7205;50.864;12.766;2023-07-29T08:47:59;96923.72;;;27.11;48.42
14242;BME280;7205;50.864;12.766;2023-07-29T08:50:32;96923.00;;;27.05;48.11
14242;BME280;7205;50.864;12.766;2023-07-29T08:52:59;96920.56;;;27.04;48.50
14242;BME280;7205;50.864;12.766;2023-07-29T08:55:27;96918.06;;;27.07;48.97
14242;BME280;7205;50.864;12.766;2023-07-29T08:57:54;96926.59;;;27.14;49.13
14242;BME280;7205;50.864;12.766;2023-07-29T09:00:21;96919.63;;;27.27;49.18
14242;BME280;7205;50.864;12.766;2023-07-29T09:02:48;96923.97;;;27.42;48.54
14242;BME280;7205;50.864;12.766;2023-07-29T09:05:16;96921.38;;;27.50;48.27
14242;BME280;7205;50.864;12.766;2023-07-29T09:07:44;96917.19;;;27.58;47.58
14242;BME280;7205;50.864;12.766;2023-07-29T09:10:13;96909.50;;;27.60;46.94
14242;BME280;7205;50.864;12.766;2023-07-29T09:12:40;96914.56;;;27.53;46.42
14242;BME280;7205;50.864;12.766;2023-07-29T09:15:08;96919.38;;;27.42;46.60
14242;BME280;7205;50.864;12.766;2023-07-29T09:17:35;96913.81;;;27.34;47.16
14242;BME280;7205;50.864;12.766;2023-07-29T09:20:02;96903.78;;;27.34;47.64
14242;BME280;7205;50.864;12.766;2023-07-29T09:22:30;96907.59;;;27.33;47.03
14242;BME280;7205;50.864;12.766;2023-07-29T09:24:58;96909.88;;;27.26;46.92
14242;BME280;7205;50.864;12.766;2023-07-29T09:27:25;96912.47;;;27.17;47.41
14242;BME280;7205;50.864;12.766;2023-07-29T09:29:52;96915.50;;;27.16;47.58
14242;BME280;7205;50.864;12.766;2023-07-29T09:32:20;96907.53;;;27.19;47.68
14242;BME280;7205;50.864;12.766;2023-07-29T09:34:47;96908.56;;;27.24;47.34
14242;BME280;7205;50.864;12.766;2023-07-29T09:37:17;96905.69;;;27.34;47.87
14242;BME280;7205;50.864;12.766;2023-07-29T09:39:47;96903.28;;;27.46;47.69
14242;BME280;7205;50.864;12.766;2023-07-29T09:42:19;96900.69;;;27.54;47.66
14242;BME280;7205;50.864;12.766;2023-07-29T09:44:46;96911.94;;;27.61;47.73
14242;BME280;7205;50.864;12.766;2023-07-29T09:47:20;96899.69;;;27.64;47.29
14242;BME280;7205;50.864;12.766;2023-07-29T09:49:47;96911.94;;;27.61;47.32
14242;BME280;7205;50.864;12.766;2023-07-29T09:52:15;96913.66;;;27.57;47.52
14242;BME280;7205;50.864;12.766;2023-07-29T09:54:43;96902.47;;;27.45;47.96
14242;BME280;7205;50.864;12.766;2023-07-29T09:57:10;96915.25;;;27.31;47.56
14242;BME280;7205;50.864;12.766;2023-07-29T09:59:41;96913.34;;;27.13;47.76
14242;BME280;7205;50.864;12.766;2023-07-29T10:02:14;96903.59;;;26.98;48.17
14242;BME280;7205;50.864;12.766;2023-07-29T10:04:42;96896.97;;;26.91;48.84
14242;BME280;7205;50.864;12.766;2023-07-29T10:07:09;96900.16;;;26.93;49.27
14242;BME280;7205;50.864;12.766;2023-07-29T10:09:37;96902.56;;;26.94;48.89
14242;BME280;7205;50.864;12.766;2023-07-29T10:12:06;96905.00;;;26.96;48.79
14242;BME280;7205;50.864;12.766;2023-07-29T10:14:33;96905.28;;;26.94;48.59
14242;BME280;7205;50.864;12.766;2023-07-29T10:17:02;96907.50;;;26.92;48.86
14242;BME280;7205;50.864;12.766;2023-07-29T10:19:30;96912.91;;;26.92;49.00
14242;BME280;7205;50.864;12.766;2023-07-29T10:21:59;96913.69;;;26.93;49.23
14242;BME280;7205;50.864;12.766;2023-07-29T10:24:30;96913.91;;;26.96;49.36
14242;BME280;7205;50.864;12.766;2023-07-29T10:26:58;96916.53;;;27.01;49.46
14242;BME280;7205;50.864;12.766;2023-07-29T10:29:29;96913.84;;;27.15;50.18
14242;BME280;7205;50.864;12.766;2023-07-29T10:31:57;96909.88;;;27.26;49.54
14242;BME280;7205;50.864;12.766;2023-07-29T10:34:29;96910.81;;;27.35;49.06
14242;BME280;7205;50.864;12.766;2023-07-29T10:36:57;96909.31;;;27.43;49.38
14242;BME280;7205;50.864;12.766;2023-07-29T10:39:24;96908.63;;;27.51;48.91
14242;BME280;7205;50.864;12.766;2023-07-29T10:41:55;96910.44;;;27.55;48.71
14242;BME280;7205;50.864;12.766;2023-07-29T10:44:47;96903.91;;;27.56;49.18
14242;BME280;7205;50.864;12.766;2023-07-29T10:47:16;96903.19;;;27.64;48.59
14242;BME280;7205;50.864;12.766;2023-07-29T10:49:46;96911.84;;;27.66;48.65
14242;BME280;7205;50.864;12.766;2023-07-29T10:52:13;96913.16;;;27.69;48.83
14242;BME280;7205;50.864;12.766;2023-07-29T10:54:45;96907.81;;;27.64;48.49
14242;BME280;7205;50.864;12.766;2023-07-29T10:57:15;96912.63;;;27.53;48.20
14242;BME280;7205;50.864;12.766;2023-07-29T10:59:54;96910.50;;;27.37;48.45
14242;BME280;7205;50.864;12.766;2023-07-29T11:02:28;96907.34;;;27.16;48.93
14242;BME280;7205;50.864;12.766;2023-07-29T11:04:57;96914.66;;;27.02;49.56
14242;BME280;7205;50.864;12.766;2023-07-29T11:07:25;96897.81;;;26.86;49.96
14242;BME280;7205;50.864;12.766;2023-07-29T11:10:00;96910.31;;;26.69;50.12
14242;BME280;7205;50.864;12.766;2023-07-29T11:12:41;96908.19;;;26.47;50.72
14242;BME280;7205;50.864;12.766;2023-07-29T11:15:14;96909.56;;;26.26;51.14
14242;BME280;7205;50.864;12.766;2023-07-29T11:17:42;96907.09;;;26.11;51.67
14242;BME280;7205;50.864;12.766;2023-07-29T11:20:11;96898.50;;;26.04;52.85
14242;BME280;7205;50.864;12.766;2023-07-29T11:22:39;96894.22;;;26.03;53.04
14242;BME280;7205;50.864;12.766;2023-07-29T11:25:07;96891.44;;;26.08;53.27
14242;BME280;7205;50.864;12.766;2023-07-29T11:27:35;96898.66;;;26.13;53.61
14242;BME280;7205;50.864;12.766;2023-07-29T11:30:03;96890.78;;;26.16;53.18
14242;BME280;7205;50.864;12.766;2023-07-29T11:32:32;96899.13;;;26.20;53.51
14242;BME280;7205;50.864;12.766;2023-07-29T11:35:01;96895.25;;;26.26;53.62
14242;BME280;7205;50.864;12.766;2023-07-29T11:37:30;96898.16;;;26.29;53.21
14242;BME280;7205;50.864;12.766;2023-07-29T11:39:57;96897.06;;;26.30;53.64
14242;BME280;7205;50.864;12.766;2023-07-29T11:42:26;96881.56;;;26.36;53.55
14242;BME280;7205;50.864;12.766;2023-07-29T11:44:53;96887.97;;;26.40;53.51
14242;BME280;7205;50.864;12.766;2023-07-29T11:47:20;96888.44;;;26.47;53.52
14242;BME280;7205;50.864;12.766;2023-07-29T11:49:46;96885.34;;;26.53;53.27
14242;BME280;7205;50.864;12.766;2023-07-29T11:52:13;96888.25;;;26.57;52.91
14242;BME280;7205;50.864;12.766;2023-07-29T11:54:47;96879.63;;;26.55;52.53
14242;BME280;7205;50.864;12.766;2023-07-29T11:57:15;96878.88;;;26.49;52.26
14242;BME280;7205;50.864;12.766;2023-07-29T11:59:42;96872.03;;;26.38;52.47
14242;BME280;7205;50.864;12.766;2023-07-29T12:02:11;96857.91;;;26.23;52.66
14242;BME280;7205;50.864;12.766;2023-07-29T12:04:39;96858.94;;;26.08;53.08
14242;BME280;7205;50.864;12.766;2023-07-29T12:07:06;96858.53;;;25.96;53.67
14242;BME280;7205;50.864;12.766;2023-07-29T12:09:33;96855.97;;;25.86;53.96
14242;BME280;7205;50.864;12.766;2023-07-29T12:12:02;96858.22;;;25.79;54.08
14242;BME280;7205;50.864;12.766;2023-07-29T12:14:29;96866.09;;;25.80;54.93
14242;BME280;7205;50.864;12.766;2023-07-29T12:16:59;96867.53;;;25.91;55.37
14242;BME280;7205;50.864;12.766;2023-07-29T12:19:31;96872.25;;;26.05;54.91
14242;BME280;7205;50.864;12.766;2023-07-29T12:21:58;96873.75;;;26.16;54.90
14242;BME280;7205;50.864;12.766;2023-07-29T12:24:25;96866.56;;;26.25;54.75
14242;BME280;7205;50.864;12.766;2023-07-29T12:26:52;96862.00;;;26.39;54.78
14242;BME280;7205;50.864;12.766;2023-07-29T12:29:20;96857.94;;;26.55;54.31
14242;BME280;7205;50.864;12.766;2023-07-29T12:31:48;96867.75;;;26.69;53.63
14242;BME280;7205;50.864;12.766;2023-07-29T12:34:18;96858.53;;;26.70;51.82
14242;BME280;7205;50.864;12.766;2023-07-29T12:36:46;96863.16;;;26.70;52.02
14242;BME280;7205;50.864;12.766;2023-07-29T12:39:21;96862.22;;;26.61;51.33
14242;BME280;7205;50.864;12.766;2023-07-29T12:41:49;96865.25;;;26.41;50.81
14242;BME280;7205;50.864;12.766;2023-07-29T12:44:17;96858.56;;;26.15;51.12
14242;BME280;7205;50.864;12.766;2023-07-29T12:46:45;96868.13;;;25.88;51.87
14242;BME280;7205;50.864;12.766;2023-07-29T12:49:12;96874.09;;;25.67;52.44
14242;BME280;7205;50.864;12.766;2023-07-29T12:51:39;96856.72;;;25.49;52.99
14242;BME280;7205;50.864;12.766;2023-07-29T12:54:05;96842.84;;;25.32;53.45
14242;BME280;7205;50.864;12.766;2023-07-29T12:56:33;96845.13;;;25.20;53.87
14242;BME280;7205;50.864;12.766;2023-07-29T12:59:00;96836.63;;;25.08;54.58
14242;BME280;7205;50.864;12.766;2023-07-29T13:01:28;96848.63;;;24.97;54.96
14242;BME280;7205;50.864;12.766;2023-07-29T13:03:56;96852.75;;;24.90;55.34